Time;durP1;ratioP1;P1;durP2;ratioP2;P2;SDS_P1;SDS_P2;PMS_P1;PMS_P2;Temp;Humidity;BMP_temperature;BMP_pressure;BME280_temperature;BME280_humidity;BME280_pressure;Samples;Min_cycle;Max_cycle;Signal;HPM_P1;HPM_P2
2022/08/08 00:01:57;;;;;;;6.50;3.20;;;24.30;50.80;;;;;;5005100;28;20042;-56
2022/08/08 00:04:42;;;;;;;4.90;2.90;;;24.30;50.80;;;;;;5000494;28;20133;-56
2022/08/08 00:07:56;;;;;;;7.70;2.75;;;24.20;50.90;;;;;;5000214;28;20095;-56
2022/08/08 00:10:45;;;;;;;5.47;2.97;;;24.20;50.90;;;;;;4946565;28;20035;-56
2022/08/08 00:13:28;;;;;;;6.82;2.70;;;24.20;50.90;;;;;;4899530;29;20044;-56
2022/08/08 00:16:08;;;;;;;5.10;2.95;;;24.20;50.90;;;;;;4906868;29;20043;-56
2022/08/08 00:18:41;;;;;;;7.10;2.92;;;24.20;51.00;;;;;;4904089;29;20511;-56
2022/08/08 00:21:07;;;;;;;5.85;2.88;;;24.20;51.00;;;;;;4902607;29;20521;-56
2022/08/08 00:23:40;;;;;;;7.78;3.05;;;24.10;50.90;;;;;;4893744;29;20087;-56
2022/08/08 00:26:07;;;;;;;4.88;3.00;;;24.10;50.90;;;;;;4906306;29;20051;-56
2022/08/08 00:28:37;;;;;;;5.03;2.70;;;24.20;51.10;;;;;;4887110;29;20027;-56
2022/08/08 00:31:23;;;;;;;6.10;2.97;;;24.20;51.10;;;;;;4892691;29;20063;-56
2022/08/08 00:37:14;;;;;;;4.75;2.70;;;24.10;51.00;;;;;;4910860;29;20075;-56
2022/08/08 00:39:55;;;;;;;6.13;2.97;;;24.10;51.20;;;;;;4909914;29;20529;-56
2022/08/08 00:42:40;;;;;;;6.15;2.85;;;24.10;51.10;;;;;;4896547;29;20028;-56
2022/08/08 00:45:29;;;;;;;6.60;2.95;;;24.10;51.20;;;;;;4924314;28;20086;-56
2022/08/08 00:48:12;;;;;;;5.57;2.80;;;24.10;51.20;;;;;;4941582;28;20048;-56
2022/08/08 00:50:47;;;;;;;5.70;2.83;;;24.10;51.10;;;;;;4968507;28;20053;-56
2022/08/08 00:53:18;;;;;;;4.30;2.72;;;24.10;51.20;;;;;;4988484;28;20034;-56
2022/08/08 00:56:25;;;;;;;5.28;3.00;;;24.10;51.30;;;;;;4988635;28;20150;-56
2022/08/08 00:59:09;;;;;;;5.30;3.00;;;24.10;51.20;;;;;;4987275;28;20049;-56
2022/08/08 01:01:39;;;;;;;3.92;2.50;;;24.00;51.20;;;;;;4988849;28;20555;-56
2022/08/08 01:04:45;;;;;;;5.20;2.72;;;24.00;51.00;;;;;;4956061;28;20034;-56
2022/08/08 01:07:29;;;;;;;5.18;2.72;;;24.00;51.20;;;;;;4975332;28;20132;-56
2022/08/08 01:10:36;;;;;;;4.70;2.70;;;24.00;51.20;;;;;;4987440;28;20027;-56
2022/08/08 01:13:04;;;;;;;6.38;2.70;;;24.00;51.20;;;;;;4947596;29;20564;-56
2022/08/08 01:15:36;;;;;;;4.72;2.75;;;24.00;51.10;;;;;;4948159;29;20039;-57
2022/08/08 01:18:25;;;;;;;5.22;2.72;;;24.00;51.10;;;;;;4948563;29;20088;-56
2022/08/08 01:21:06;;;;;;;5.13;2.70;;;24.00;51.20;;;;;;4947423;29;20031;-56
2022/08/08 01:23:39;;;;;;;5.35;2.90;;;24.00;51.20;;;;;;4927783;29;20067;-56
2022/08/08 01:26:42;;;;;;;5.97;2.72;;;24.00;51.30;;;;;;4977824;28;20050;-56
2022/08/08 01:29:19;;;;;;;4.10;2.50;;;23.90;51.10;;;;;;4984906;28;20034;-56
2022/08/08 01:32:07;;;;;;;5.50;2.67;;;24.00;51.20;;;;;;4981364;28;20038;-56
2022/08/08 01:35:00;;;;;;;5.50;2.95;;;24.00;51.20;;;;;;4983028;28;20034;-56
2022/08/08 01:38:03;;;;;;;5.32;2.90;;;23.90;51.20;;;;;;4977135;28;20134;-56
2022/08/08 01:40:47;;;;;;;5.35;3.00;;;23.90;51.10;;;;;;4977786;28;20543;-56
2022/08/08 01:43:13;;;;;;;5.15;2.60;;;23.90;51.20;;;;;;4981406;28;20035;-56
2022/08/08 01:46:01;;;;;;;4.40;2.67;;;23.90;51.10;;;;;;4977233;28;20721;-56
2022/08/08 01:48:42;;;;;;;3.95;2.47;;;23.90;51.20;;;;;;5001030;28;20064;-56
2022/08/08 01:51:32;;;;;;;5.65;2.72;;;23.90;51.20;;;;;;5028895;28;20017;-56
2022/08/08 01:54:16;;;;;;;4.68;2.75;;;23.80;51.10;;;;;;5025502;28;20053;-56
2022/08/08 01:56:49;;;;;;;4.30;2.57;;;23.90;51.20;;;;;;5028718;28;20490;-56
2022/08/08 02:00:03;;;;;;;6.68;2.83;;;23.90;51.20;;;;;;5054924;28;20308;-56
2022/08/08 02:02:50;;;;;;;5.32;2.63;;;23.80;51.20;;;;;;4982820;28;21619;-56
2022/08/08 02:05:35;;;;;;;4.55;2.60;;;23.80;51.10;;;;;;4989182;28;20042;-56
2022/08/08 02:08:29;;;;;;;4.72;2.50;;;23.80;51.20;;;;;;4984055;28;20145;-56
2022/08/08 02:11:07;;;;;;;4.70;2.60;;;23.80;51.30;;;;;;4981991;28;20141;-56
2022/08/08 02:13:54;;;;;;;4.55;2.50;;;23.80;51.30;;;;;;4987063;28;20033;-56
2022/08/08 02:16:56;;;;;;;5.18;2.83;;;23.80;51.20;;;;;;4985378;28;20018;-56
2022/08/08 02:19:25;;;;;;;4.38;2.55;;;23.80;51.30;;;;;;4993054;28;20082;-56
2022/08/08 02:22:32;;;;;;;5.25;2.88;;;23.80;51.30;;;;;;4995992;28;20100;-56
2022/08/08 02:25:09;;;;;;;5.25;2.75;;;23.80;51.30;;;;;;4985977;28;20625;-56
2022/08/08 02:27:38;;;;;;;6.15;2.80;;;23.80;51.40;;;;;;4985593;28;20031;-56
2022/08/08 02:30:19;;;;;;;5.82;2.85;;;23.80;51.40;;;;;;4989729;28;20065;-56
2022/08/08 02:33:25;;;;;;;5.55;3.00;;;23.80;51.40;;;;;;4985288;28;20572;-56
2022/08/08 02:36:32;;;;;;;4.38;2.63;;;23.80;51.40;;;;;;4956213;28;20049;-56
2022/08/08 02:39:35;;;;;;;4.25;2.42;;;23.70;51.40;;;;;;5018356;28;20104;-56
2022/08/08 02:42:04;;;;;;;4.30;2.47;;;23.70;51.40;;;;;;5027235;28;20048;-56
2022/08/08 02:44:41;;;;;;;4.85;2.78;;;23.80;51.40;;;;;;5024964;28;20087;-56
2022/08/08 02:47:25;;;;;;;5.05;2.85;;;23.70;51.50;;;;;;5026568;28;20418;-56
2022/08/08 02:50:21;;;;;;;4.43;2.60;;;23.70;51.40;;;;;;5025382;28;20048;-56
2022/08/08 02:52:54;;;;;;;4.35;2.67;;;23.70;51.50;;;;;;5025452;28;20037;-56
2022/08/08 02:55:50;;;;;;;4.75;2.67;;;23.70;51.50;;;;;;5024867;28;20540;-56
2022/08/08 02:58:27;;;;;;;;;;;23.70;51.60;;;;;;5054137;28;20026;-56
2022/08/08 03:01:17;;;;;;;4.72;2.70;;;23.70;51.50;;;;;;5025066;28;19909;-56
2022/08/08 03:04:09;;;;;;;5.97;2.60;;;23.70;51.60;;;;;;5025841;28;20045;-56
2022/08/08 03:06:57;;;;;;;4.15;2.65;;;23.70;51.60;;;;;;5027430;28;20593;-56
2022/08/08 03:09:41;;;;;;;4.95;2.90;;;23.70;51.60;;;;;;5023149;28;20029;-56
2022/08/08 03:12:24;;;;;;;4.83;2.63;;;23.60;51.60;;;;;;5026298;28;20091;-56
2022/08/08 03:15:16;;;;;;;4.38;2.53;;;23.70;51.70;;;;;;5026603;28;20072;-56
2022/08/08 03:17:52;;;;;;;4.80;2.75;;;23.60;51.80;;;;;;5015038;28;20140;-56
2022/08/08 03:20:17;;;;;;;4.50;2.50;;;23.60;51.70;;;;;;5003677;28;20061;-56
2022/08/08 03:22:48;;;;;;;4.45;2.60;;;23.60;51.80;;;;;;5018698;28;20568;-56
2022/08/08 03:25:15;;;;;;;4.63;2.55;;;23.60;51.80;;;;;;5013622;28;20531;-55
2022/08/08 03:27:45;;;;;;;4.10;2.50;;;23.60;51.80;;;;;;5014173;28;20407;-56
2022/08/08 03:30:12;;;;;;;5.07;2.83;;;23.60;51.70;;;;;;4997079;28;20033;-56
2022/08/08 03:35:22;;;;;;;4.40;2.50;;;23.60;51.80;;;;;;5001699;28;20129;-56
2022/08/08 03:37:48;;;;;;;4.93;2.70;;;23.60;51.80;;;;;;5016049;28;20482;-56
2022/08/08 03:40:14;;;;;;;5.03;2.60;;;23.60;51.90;;;;;;5016963;28;20087;-56
2022/08/08 03:42:40;;;;;;;4.88;2.72;;;23.60;51.80;;;;;;5013731;28;20325;-56
2022/08/08 03:45:22;;;;;;;4.97;2.60;;;23.60;51.80;;;;;;5017604;28;20042;-56
2022/08/08 03:47:55;;;;;;;4.70;2.80;;;23.50;51.80;;;;;;5015202;28;20033;-56
2022/08/08 03:50:21;;;;;;;4.50;2.63;;;23.50;51.80;;;;;;5017430;28;20507;-56
2022/08/08 03:52:47;;;;;;;4.93;2.38;;;23.50;51.80;;;;;;5015323;28;20411;-56
2022/08/08 03:55:14;;;;;;;5.18;2.63;;;23.50;51.90;;;;;;5017309;28;20087;-56
2022/08/08 03:57:47;;;;;;;3.80;2.35;;;23.50;51.80;;;;;;5025034;28;20029;-56
2022/08/08 04:00:14;;;;;;;4.47;2.50;;;23.50;51.90;;;;;;5024853;28;20021;-56
2022/08/08 04:02:40;;;;;;;4.47;2.58;;;23.50;51.90;;;;;;5024246;28;20552;-56
2022/08/08 04:05:06;;;;;;;3.55;2.40;;;23.50;51.90;;;;;;5026545;28;20045;-56
2022/08/08 04:07:38;;;;;;;5.43;2.65;;;23.50;51.80;;;;;;5025135;28;20409;-56
2022/08/08 04:10:05;;;;;;;4.88;2.45;;;23.50;51.90;;;;;;5025033;28;20049;-56
2022/08/08 04:12:31;;;;;;;4.65;2.60;;;23.50;51.90;;;;;;5023783;28;20060;-56
2022/08/08 04:14:57;;;;;;;4.50;2.33;;;23.50;51.90;;;;;;5027020;28;20453;-56
2022/08/08 04:17:22;;;;;;;3.78;2.40;;;23.50;51.90;;;;;;5024865;28;20049;-56
2022/08/08 04:19:48;;;;;;;4.20;2.33;;;23.50;51.90;;;;;;5024772;28;20026;-56
2022/08/08 04:22:13;;;;;;;4.65;2.53;;;23.40;51.90;;;;;;5025455;28;20030;-56
2022/08/08 04:24:39;;;;;;;4.13;2.33;;;23.40;51.90;;;;;;5023888;28;20025;-56
2022/08/08 04:27:05;;;;;;;5.35;2.42;;;23.40;51.90;;;;;;5025321;28;20030;-56
2022/08/08 04:29:31;;;;;;;5.15;2.72;;;23.40;51.90;;;;;;5057164;28;20021;-56
2022/08/08 04:31:57;;;;;;;3.63;2.10;;;23.40;51.90;;;;;;5025146;28;20048;-56
2022/08/08 04:34:23;;;;;;;4.40;2.63;;;23.40;52.00;;;;;;5025518;28;20498;-56
2022/08/08 04:36:48;;;;;;;3.95;2.20;;;23.40;51.90;;;;;;5023242;28;20481;-56
2022/08/08 04:39:14;;;;;;;3.50;2.40;;;23.30;51.90;;;;;;5025730;28;20026;-56
2022/08/08 04:41:39;;;;;;;4.03;2.42;;;23.40;51.90;;;;;;5024729;28;20029;-56
2022/08/08 04:44:05;;;;;;;4.03;2.65;;;23.40;51.90;;;;;;5026010;28;20041;-56
2022/08/08 04:46:31;;;;;;;4.57;2.40;;;23.30;51.90;;;;;;5025272;28;20045;-56
2022/08/08 04:48:57;;;;;;;3.38;2.45;;;23.30;52.00;;;;;;5024144;28;20400;-56
2022/08/08 04:51:22;;;;;;;4.32;2.30;;;23.30;51.90;;;;;;5025634;28;20048;-56
2022/08/08 04:53:48;;;;;;;4.15;2.38;;;23.30;51.90;;;;;;5023932;28;20029;-56
2022/08/08 04:56:15;;;;;;;5.07;2.40;;;23.30;51.90;;;;;;5024874;28;20060;-56
2022/08/08 04:58:42;;;;;;;4.22;2.60;;;23.30;51.90;;;;;;5050900;28;20075;-56
2022/08/08 05:01:07;;;;;;;5.22;2.50;;;23.30;51.90;;;;;;5025673;28;20072;-56
2022/08/08 05:03:33;;;;;;;4.35;2.25;;;23.30;51.90;;;;;;5024060;28;20486;-56
2022/08/08 05:05:59;;;;;;;9.38;3.95;;;23.30;51.90;;;;;;5024854;28;20544;-56
2022/08/08 05:08:25;;;;;;;8.27;4.10;;;23.20;51.90;;;;;;5023496;28;20788;-56
2022/08/08 05:10:51;;;;;;;9.65;4.63;;;23.20;51.70;;;;;;5024126;28;20037;-56
2022/08/08 05:13:17;;;;;;;11.55;4.35;;;23.10;51.40;;;;;;5024570;28;20014;-56
2022/08/08 05:15:43;;;;;;;6.80;2.85;;;23.10;51.60;;;;;;5024010;28;20029;-56
2022/08/08 05:18:08;;;;;;;6.45;3.10;;;23.10;52.00;;;;;;5025565;28;20109;-56
2022/08/08 05:20:34;;;;;;;6.20;3.25;;;23.10;52.00;;;;;;5023739;28;20025;-56
2022/08/08 05:23:00;;;;;;;7.80;3.30;;;23.10;51.90;;;;;;5026398;28;20022;-56
2022/08/08 05:25:25;;;;;;;8.05;3.47;;;23.10;52.00;;;;;;5028202;28;20405;-56
2022/08/08 05:27:52;;;;;;;5.30;2.97;;;23.10;52.00;;;;;;5028521;28;20029;-56
2022/08/08 05:30:17;;;;;;;6.35;3.20;;;23.10;51.90;;;;;;5028386;28;20041;-56
2022/08/08 05:32:43;;;;;;;6.32;3.10;;;23.10;52.00;;;;;;5028071;28;20048;-56
2022/08/08 05:35:09;;;;;;;7.50;3.05;;;23.10;51.90;;;;;;5028808;28;20037;-56
2022/08/08 05:37:38;;;;;;;7.32;3.30;;;23.10;52.00;;;;;;5026352;28;20021;-56
2022/08/08 05:40:05;;;;;;;7.18;3.42;;;23.10;52.00;;;;;;5026367;28;20029;-56
2022/08/08 05:42:40;;;;;;;7.53;3.08;;;23.10;52.00;;;;;;5028669;28;20490;-56
2022/08/08 05:45:06;;;;;;;8.57;3.50;;;23.10;52.00;;;;;;5026475;28;20656;-56
2022/08/08 05:47:32;;;;;;;6.00;3.30;;;23.10;52.10;;;;;;5027956;28;20114;-56
2022/08/08 05:49:58;;;;;;;6.40;3.28;;;23.10;52.10;;;;;;5027149;28;20506;-56
2022/08/08 05:52:23;;;;;;;6.03;3.13;;;23.10;52.00;;;;;;5027385;28;20022;-56
2022/08/08 05:54:49;;;;;;;6.40;3.38;;;23.10;52.10;;;;;;5027650;28;20766;-56
2022/08/08 05:57:15;;;;;;;7.75;3.28;;;23.00;52.10;;;;;;5028381;28;20056;-56
2022/08/08 05:59:51;;;;;;;6.72;2.97;;;23.10;52.10;;;;;;5027808;28;20025;-56
2022/08/08 06:05:07;;;;;;;5.72;3.15;;;23.10;52.20;;;;;;5024388;28;20045;-56
2022/08/08 06:07:33;;;;;;;6.50;3.38;;;23.10;52.10;;;;;;5051648;28;20017;-56
2022/08/08 06:10:00;;;;;;;5.47;2.88;;;23.10;52.20;;;;;;5026875;28;20030;-56
2022/08/08 06:12:25;;;;;;;6.07;3.08;;;23.00;52.20;;;;;;5007662;28;20105;-56
2022/08/08 06:14:51;;;;;;;5.60;3.17;;;23.10;52.30;;;;;;5025758;28;20104;-56
2022/08/08 06:17:17;;;;;;;6.80;2.85;;;23.00;52.20;;;;;;5025740;28;20060;-56
2022/08/08 06:19:42;;;;;;;5.45;2.88;;;23.00;52.20;;;;;;5026411;28;20029;-56
2022/08/08 06:22:09;;;;;;;5.75;2.80;;;23.00;52.20;;;;;;5025310;28;20056;-56
2022/08/08 06:24:34;;;;;;;5.20;2.90;;;23.00;52.30;;;;;;5028031;28;20052;-56
2022/08/08 06:27:03;;;;;;;5.40;2.90;;;23.00;52.30;;;;;;5028863;28;20608;-56
2022/08/08 06:29:34;;;;;;;5.43;3.08;;;23.00;52.20;;;;;;5026653;28;20068;-56
2022/08/08 06:32:02;;;;;;;6.38;3.28;;;23.00;52.30;;;;;;5027471;28;20508;-56
2022/08/08 06:34:33;;;;;;;7.18;3.00;;;23.00;52.30;;;;;;5026750;28;20057;-55
2022/08/08 06:36:58;;;;;;;6.22;2.92;;;23.00;52.30;;;;;;5027477;28;20029;-56
2022/08/08 06:39:24;;;;;;;5.15;2.72;;;23.00;52.40;;;;;;5028083;28;20535;-56
2022/08/08 06:41:57;;;;;;;5.95;2.72;;;23.00;52.20;;;;;;5026527;28;20586;-56
2022/08/08 06:44:23;;;;;;;4.95;2.58;;;23.00;52.40;;;;;;5029019;28;20056;-56
2022/08/08 06:46:51;;;;;;;5.70;2.90;;;23.00;52.50;;;;;;5025900;28;20029;-56
2022/08/08 06:49:16;;;;;;;6.47;2.80;;;23.00;52.30;;;;;;5026470;28;20453;-55
2022/08/08 06:51:42;;;;;;;5.22;2.90;;;23.00;52.30;;;;;;5050872;28;20029;-56
2022/08/08 06:54:08;;;;;;;4.75;2.67;;;23.00;52.40;;;;;;5026199;28;20050;-54
2022/08/08 06:56:34;;;;;;;5.38;2.70;;;23.00;52.30;;;;;;5054904;28;21587;-56
2022/08/08 06:58:59;;;;;;;5.82;2.67;;;23.00;52.40;;;;;;5026962;28;20079;-56
2022/08/08 07:01:26;;;;;;;4.93;2.70;;;23.00;52.40;;;;;;5025396;28;20049;-56
2022/08/08 07:04:08;;;;;;;7.03;2.83;;;23.00;52.40;;;;;;5025409;28;20025;-56
2022/08/08 07:06:34;;;;;;;6.25;2.75;;;23.00;52.50;;;;;;5022467;28;20030;-56
2022/08/08 07:09:11;;;;;;;5.60;2.80;;;23.00;52.50;;;;;;5025713;28;20402;-56
2022/08/08 07:11:42;;;;;;;4.68;2.78;;;23.00;52.50;;;;;;5025720;28;20033;-56
2022/08/08 07:14:11;;;;;;;4.57;2.60;;;23.00;53.50;;;;;;5027113;28;20075;-56
2022/08/08 07:17:08;;;;;;;4.63;2.72;;;23.00;52.50;;;;;;5037469;28;20029;-56
2022/08/08 07:20:04;;;;;;;5.47;2.65;;;23.00;52.50;;;;;;5025121;28;20056;-56
2022/08/08 07:23:20;;;;;;;6.70;2.58;;;23.00;52.60;;;;;;5016813;28;20030;-56
2022/08/08 07:25:46;;;;;;;4.93;2.80;;;23.00;52.60;;;;;;5009505;28;20056;-56
2022/08/08 07:28:14;;;;;;;5.43;2.92;;;23.00;52.80;;;;;;4992216;28;20606;-56
2022/08/08 07:30:40;;;;;;;5.40;2.92;;;23.00;52.80;;;;;;5020458;28;20443;-56
2022/08/08 07:33:10;;;;;;;4.88;2.83;;;23.00;52.80;;;;;;5023616;28;20641;-56
2022/08/08 07:35:36;;;;;;;6.10;2.72;;;23.00;52.90;;;;;;5023094;28;20550;-56
2022/08/08 07:38:02;;;;;;;5.65;2.70;;;23.00;52.90;;;;;;5022642;28;20072;-56
2022/08/08 07:40:28;;;;;;;5.28;2.85;;;23.00;52.90;;;;;;5024798;28;20045;-56
2022/08/08 07:42:53;;;;;;;4.40;2.70;;;23.00;53.00;;;;;;5022703;28;20433;-56
2022/08/08 07:45:20;;;;;;;4.53;2.67;;;23.00;53.20;;;;;;5021799;28;20088;-56
2022/08/08 07:47:45;;;;;;;5.20;2.90;;;23.00;53.20;;;;;;5022158;28;20037;-56
2022/08/08 07:50:11;;;;;;;5.18;2.63;;;23.00;53.20;;;;;;5022347;28;20036;-55
2022/08/08 07:52:38;;;;;;;5.25;2.60;;;23.10;53.30;;;;;;5020978;28;20116;-56
2022/08/08 07:55:09;;;;;;;4.13;2.70;;;23.10;53.30;;;;;;5007976;28;20049;-56
2022/08/08 07:58:01;;;;;;;4.45;2.63;;;23.00;53.20;;;;;;5020432;28;20026;-56
2022/08/08 08:00:43;;;;;;;5.10;2.90;;;23.10;53.30;;;;;;5025925;28;20568;-56
2022/08/08 08:03:13;;;;;;;5.05;2.70;;;23.00;53.30;;;;;;5049245;28;20036;-56
2022/08/08 08:05:42;;;;;;;6.00;2.60;;;23.10;53.50;;;;;;5049880;28;20453;-55
2022/08/08 08:08:24;;;;;;;6.00;2.75;;;23.10;53.40;;;;;;5020200;28;20462;-57
2022/08/08 08:10:51;;;;;;;6.32;2.70;;;23.10;53.30;;;;;;5024726;28;20033;-56
2022/08/08 08:13:35;;;;;;;8.02;2.95;;;23.10;53.80;;;;;;5022206;28;20037;-57
2022/08/08 08:16:04;;;;;;;4.82;2.88;;;23.20;54.30;;;;;;5023990;28;20026;-57
2022/08/08 08:18:42;;;;;;;7.30;3.05;;;23.20;54.00;;;;;;5022153;28;20026;-57
2022/08/08 08:21:08;;;;;;;5.82;2.75;;;23.20;54.00;;;;;;5024220;28;20036;-57
2022/08/08 08:23:34;;;;;;;6.53;2.90;;;23.20;54.20;;;;;;5024291;28;20057;-57
2022/08/08 08:26:00;;;;;;;6.05;2.83;;;23.30;54.40;;;;;;5025699;28;20137;-57
2022/08/08 08:28:26;;;;;;;6.95;2.90;;;23.30;54.40;;;;;;5024407;28;20470;-57
2022/08/08 08:30:52;;;;;;;7.03;2.75;;;23.30;54.40;;;;;;5025106;28;20045;-57
2022/08/08 08:33:18;;;;;;;5.45;2.65;;;23.30;54.30;;;;;;5025083;28;20638;-58
2022/08/08 08:35:43;;;;;;;6.72;2.95;;;23.30;54.60;;;;;;5026135;28;20026;-57
2022/08/08 08:38:09;;;;;;;9.00;2.90;;;23.40;54.90;;;;;;5024721;28;20490;-58
2022/08/08 08:40:35;;;;;;;5.93;2.80;;;23.40;54.50;;;;;;5024320;28;20086;-57
2022/08/08 08:43:01;;;;;;;6.03;2.80;;;23.50;54.50;;;;;;5025286;28;20033;-57
2022/08/08 08:45:27;;;;;;;5.03;2.80;;;23.50;54.40;;;;;;5027648;28;20033;-57
2022/08/08 08:47:53;;;;;;;6.47;2.78;;;23.50;54.10;;;;;;5025439;28;20049;-57
2022/08/08 08:50:19;;;;;;;5.55;2.90;;;23.50;54.20;;;;;;5025742;28;20060;-58
2022/08/08 08:52:45;;;;;;;5.90;3.00;;;23.50;54.00;;;;;;5025533;28;20045;-57
2022/08/08 08:55:12;;;;;;;8.15;3.30;;;23.50;53.90;;;;;;5022444;28;20544;-57
2022/08/08 08:57:39;;;;;;;6.68;3.20;;;23.50;53.80;;;;;;5028328;28;20049;-58
2022/08/08 09:00:06;;;;;;;6.85;3.58;;;23.50;53.90;;;;;;5029568;28;20120;-57
2022/08/08 09:02:31;;;;;;;7.55;3.60;;;23.50;53.80;;;;;;5027979;28;20040;-58
2022/08/08 09:05:00;;;;;;;8.70;3.67;;;23.50;53.30;;;;;;5026579;28;20104;-57
2022/08/08 09:07:25;;;;;;;7.78;3.92;;;23.60;53.50;;;;;;5031813;28;20537;-57
2022/08/08 09:09:52;;;;;;;8.85;3.92;;;23.60;53.40;;;;;;5028781;28;20025;-58
2022/08/08 09:12:20;;;;;;;8.77;3.67;;;23.60;53.60;;;;;;5035304;28;20044;-57
2022/08/08 09:14:47;;;;;;;9.23;3.92;;;23.60;53.50;;;;;;5033842;28;20220;-57
2022/08/08 09:17:13;;;;;;;9.70;4.70;;;23.70;53.60;;;;;;5028252;28;20017;-57
2022/08/08 09:19:40;;;;;;;7.47;4.22;;;23.70;54.00;;;;;;5029247;28;20030;-57
2022/08/08 09:22:05;;;;;;;9.35;4.22;;;23.70;54.60;;;;;;5061292;28;20508;-57
2022/08/08 09:24:32;;;;;;;8.40;4.57;;;23.70;54.30;;;;;;5030960;28;20029;-51
2022/08/08 09:27:04;;;;;;;8.70;4.32;;;23.70;54.70;;;;;;5027194;28;20060;-52
2022/08/08 09:29:31;;;;;;;12.38;4.72;;;23.70;55.10;;;;;;5030247;28;20030;-50
2022/08/08 09:32:05;;;;;;;13.27;4.70;;;23.70;55.90;;;;;;5057621;28;20116;-51
2022/08/08 09:34:32;;;;;;;11.07;4.53;;;23.70;55.60;;;;;;5028904;28;20141;-48
2022/08/08 09:37:02;;;;;;;9.63;5.00;;;23.70;56.00;;;;;;5030388;28;20042;-49
2022/08/08 09:39:30;;;;;;;18.02;5.32;;;23.70;56.40;;;;;;5029371;28;20026;-48
2022/08/08 09:42:01;;;;;;;9.38;4.78;;;23.80;56.40;;;;;;5058633;28;20083;-48
2022/08/08 09:45:13;;;;;;;10.20;4.25;;;23.80;56.40;;;;;;5026373;28;20116;-50
2022/08/08 09:47:40;;;;;;;9.45;4.82;;;23.80;56.60;;;;;;5017548;28;20036;-49
2022/08/08 09:50:18;;;;;;;11.32;5.00;;;23.80;56.50;;;;;;5028132;28;20108;-49
2022/08/08 09:52:51;;;;;;;10.43;4.47;;;23.80;57.70;;;;;;5029801;28;20083;-50
2022/08/08 09:55:17;;;;;;;10.50;4.75;;;23.80;57.40;;;;;;5031003;28;20114;-48
2022/08/08 09:57:50;;;;;;;10.95;4.68;;;23.80;57.20;;;;;;5034420;28;20025;-48
2022/08/08 10:00:17;;;;;;;12.07;4.45;;;23.80;57.90;;;;;;5027761;28;20043;-49
2022/08/08 10:02:44;;;;;;;10.52;4.50;;;23.80;58.00;;;;;;5030176;28;20159;-49
2022/08/08 10:05:19;;;;;;;12.20;5.03;;;23.80;58.20;;;;;;5030969;28;20338;-49
2022/08/08 10:07:51;;;;;;;9.82;4.32;;;23.80;57.90;;;;;;5026749;28;20052;-49
2022/08/08 10:10:27;;;;;;;10.95;4.50;;;23.80;57.80;;;;;;5026482;28;20033;-49
2022/08/08 10:12:53;;;;;;;9.40;4.78;;;23.90;57.00;;;;;;5030198;28;20041;-51
2022/08/08 10:15:19;;;;;;;11.00;4.53;;;23.90;57.40;;;;;;5026747;28;20165;-49
2022/08/08 10:17:46;;;;;;;11.52;4.70;;;24.00;57.60;;;;;;5027979;28;20116;-49
2022/08/08 10:20:12;;;;;;;10.70;4.55;;;24.00;57.60;;;;;;5026819;28;20390;-50
2022/08/08 10:22:41;;;;;;;11.18;4.43;;;24.00;58.30;;;;;;5028521;28;20021;-49
2022/08/08 10:25:07;;;;;;;9.15;4.38;;;24.00;57.90;;;;;;5027828;28;20060;-49
2022/08/08 10:27:42;;;;;;;10.23;4.50;;;24.00;57.30;;;;;;5029190;28;20061;-51
2022/08/08 10:30:09;;;;;;;8.30;4.53;;;24.00;57.90;;;;;;5026795;28;20037;-51
2022/08/08 10:32:34;;;;;;;9.70;4.50;;;24.00;58.40;;;;;;5027441;28;20056;-53
2022/08/08 10:35:07;;;;;;;10.68;4.50;;;24.10;58.10;;;;;;5049628;28;20136;-51
2022/08/08 10:37:34;;;;;;;9.60;4.32;;;24.10;58.10;;;;;;5028260;28;20049;-52
2022/08/08 10:40:01;;;;;;;9.10;4.55;;;24.10;58.40;;;;;;5028191;28;20474;-51
2022/08/08 10:42:34;;;;;;;9.15;4.20;;;24.10;58.70;;;;;;5026618;28;20542;-50
2022/08/08 10:45:02;;;;;;;10.00;4.90;;;24.10;58.50;;;;;;5029103;28;20716;-52
2022/08/08 10:47:28;;;;;;;10.07;4.53;;;24.10;58.60;;;;;;5027741;28;20103;-51
2022/08/08 10:49:55;;;;;;;10.35;5.10;;;24.10;58.30;;;;;;5027036;28;20499;-51
2022/08/08 10:52:47;;;;;;;9.68;4.40;;;24.10;58.40;;;;;;5025988;28;20021;-54
2022/08/08 10:55:17;;;;;;;11.30;4.43;;;24.20;58.40;;;;;;5026982;28;20048;-49
2022/08/08 10:57:47;;;;;;;8.95;4.53;;;24.20;58.20;;;;;;5027117;28;20055;-48
2022/08/08 11:00:19;;;;;;;8.45;3.90;;;24.20;57.90;;;;;;5029168;28;20028;-50
2022/08/08 11:02:44;;;;;;;10.15;4.60;;;24.30;57.80;;;;;;5030748;28;20028;-50
2022/08/08 11:05:13;;;;;;;8.38;3.88;;;24.30;57.50;;;;;;5026137;28;20091;-49
2022/08/08 11:07:40;;;;;;;11.15;4.80;;;24.30;56.90;;;;;;5031101;28;20059;-49
2022/08/08 11:10:10;;;;;;;12.80;4.88;;;24.30;56.70;;;;;;5027716;28;20029;-48
2022/08/08 11:12:49;;;;;;;10.57;4.95;;;24.30;56.80;;;;;;5031514;28;20021;-48
2022/08/08 11:15:16;;;;;;;8.85;4.20;;;24.30;56.40;;;;;;5028101;28;20516;-49
2022/08/08 11:17:42;;;;;;;12.70;4.97;;;24.30;56.00;;;;;;5026517;28;20061;-49
2022/08/08 11:20:09;;;;;;;8.77;4.65;;;24.30;55.90;;;;;;5025794;28;20029;-52
2022/08/08 11:22:34;;;;;;;7.95;4.20;;;24.40;55.50;;;;;;5028388;28;20095;-52
2022/08/08 11:25:01;;;;;;;8.57;4.47;;;24.40;55.40;;;;;;5009080;28;20042;-51
2022/08/08 11:27:31;;;;;;;8.75;4.30;;;24.40;55.40;;;;;;5026195;28;20084;-49
2022/08/08 11:29:57;;;;;;;8.50;3.92;;;24.50;55.20;;;;;;5025366;28;20053;-48
2022/08/08 11:32:25;;;;;;;10.00;4.10;;;24.50;55.20;;;;;;5027549;28;20029;-49
2022/08/08 11:34:54;;;;;;;9.27;4.13;;;24.50;55.00;;;;;;5029622;28;20036;-51
2022/08/08 11:37:21;;;;;;;10.70;3.90;;;24.50;55.00;;;;;;5029917;28;20029;-48
2022/08/08 11:39:46;;;;;;;7.70;4.28;;;24.60;54.90;;;;;;5025687;28;20052;-49
2022/08/08 11:42:12;;;;;;;12.07;4.30;;;24.60;55.00;;;;;;5036875;28;20401;-53
2022/08/08 11:44:38;;;;;;;10.13;4.45;;;24.60;54.50;;;;;;5028457;28;20492;-49
2022/08/08 11:47:03;;;;;;;8.60;3.97;;;24.60;54.40;;;;;;5029055;28;20059;-49
2022/08/08 11:49:29;;;;;;;7.60;4.00;;;24.50;54.20;;;;;;5026732;28;20017;-51
2022/08/08 11:51:55;;;;;;;9.23;4.40;;;24.50;53.90;;;;;;5030013;28;20067;-49
2022/08/08 11:54:33;;;;;;;8.88;4.18;;;24.50;53.50;;;;;;5026531;28;21519;-52
2022/08/08 11:57:09;;;;;;;8.70;4.15;;;24.50;53.50;;;;;;5026903;28;20021;-50
2022/08/08 11:59:37;;;;;;;8.90;3.85;;;24.60;53.30;;;;;;5026281;28;20057;-49
2022/08/08 12:02:06;;;;;;;12.15;4.05;;;24.60;53.40;;;;;;5025199;28;20546;-51
2022/08/08 12:04:35;;;;;;;7.38;3.88;;;24.60;53.70;;;;;;5027100;28;20069;-50
2022/08/08 12:07:04;;;;;;;7.07;3.80;;;24.70;53.50;;;;;;5039869;28;20395;-49
2022/08/08 12:09:30;;;;;;;9.27;3.75;;;24.80;53.40;;;;;;5027084;28;20086;-51
2022/08/08 12:11:56;;;;;;;7.75;3.55;;;24.80;53.50;;;;;;5025258;28;20578;-48
2022/08/08 12:14:22;;;;;;;9.25;3.90;;;24.80;52.80;;;;;;5059805;28;20544;-50
2022/08/08 12:16:51;;;;;;;9.98;3.92;;;24.80;52.30;;;;;;5028714;28;20033;-52
2022/08/08 12:19:17;;;;;;;8.40;4.00;;;24.80;52.60;;;;;;5028775;28;20545;-49
2022/08/08 12:21:42;;;;;;;9.98;4.25;;;24.90;52.40;;;;;;5051954;28;20033;-50
2022/08/08 12:24:13;;;;;;;10.18;3.88;;;24.90;51.40;;;;;;5023385;28;20203;-49
2022/08/08 12:26:50;;;;;;;7.97;3.70;;;24.90;52.80;;;;;;5024987;28;20039;-51
2022/08/08 12:29:31;;;;;;;7.65;3.80;;;25.00;51.90;;;;;;5025021;28;20064;-49
2022/08/08 12:32:07;;;;;;;7.75;3.97;;;25.00;51.20;;;;;;5021047;28;20037;-51
2022/08/08 12:34:38;;;;;;;9.48;4.22;;;25.10;51.00;;;;;;5026704;28;20037;-49
2022/08/08 12:37:06;;;;;;;10.40;4.10;;;25.00;50.80;;;;;;5025300;28;20057;-49
2022/08/08 12:39:32;;;;;;;7.90;3.90;;;25.10;51.00;;;;;;5025461;28;20104;-51
2022/08/08 12:41:58;;;;;;;9.15;4.00;;;25.10;50.50;;;;;;5025931;28;20133;-49
2022/08/08 12:44:28;;;;;;;7.43;3.88;;;25.20;50.70;;;;;;5026205;28;20130;-49
2022/08/08 12:46:55;;;;;;;7.32;3.33;;;25.20;50.20;;;;;;5026288;28;20047;-49
2022/08/08 12:49:29;;;;;;;8.98;3.70;;;25.20;49.70;;;;;;5024811;28;20044;-49
2022/08/08 12:51:55;;;;;;;9.20;3.90;;;25.20;49.50;;;;;;5029869;28;20029;-52
2022/08/08 12:54:25;;;;;;;10.93;3.60;;;25.20;48.90;;;;;;5024607;28;20123;-50
2022/08/08 12:56:51;;;;;;;13.93;3.88;;;25.20;48.80;;;;;;5025153;28;20025;-50
2022/08/08 12:59:24;;;;;;;9.70;3.90;;;25.30;48.30;;;;;;5021310;28;20041;-48
2022/08/08 13:02:01;;;;;;;9.82;4.22;;;25.30;47.80;;;;;;5023059;28;20092;-50
2022/08/08 13:04:31;;;;;;;8.02;3.65;;;25.30;47.90;;;;;;5025899;28;20049;-52
2022/08/08 13:07:05;;;;;;;9.45;3.67;;;25.30;47.60;;;;;;5008647;28;20052;-49
2022/08/08 13:09:37;;;;;;;7.40;3.72;;;25.20;46.80;;;;;;5025298;28;20034;-51
2022/08/08 13:12:27;;;;;;;11.38;3.97;;;25.20;46.50;;;;;;5023778;28;20117;-53
2022/08/08 13:14:55;;;;;;;10.90;3.80;;;25.10;46.80;;;;;;5025486;28;20045;-50
2022/08/08 13:17:24;;;;;;;11.23;3.72;;;25.10;45.70;;;;;;5024528;28;20045;-50
2022/08/08 13:19:50;;;;;;;13.85;3.50;;;25.00;45.50;;;;;;5022178;28;20104;-50
2022/08/08 13:22:15;;;;;;;9.10;3.75;;;25.00;45.30;;;;;;5023914;28;20585;-49